createdAt,value
2023-04-10T00:01:45.577Z,4.03
2023-04-10T00:04:16.362Z,4.02
2023-04-10T00:06:44.722Z,4.00
2023-04-10T00:09:13.491Z,3.99
2023-04-10T00:11:41.698Z,3.99
2023-04-10T00:14:10.842Z,3.98
2023-04-10T00:16:39.491Z,3.97
2023-04-10T00:19:08.812Z,3.95
2023-04-10T00:21:36.932Z,3.95
2023-04-10T00:24:06.299Z,3.96
2023-04-10T00:26:37.174Z,3.95
2023-04-10T00:29:06.781Z,3.92
2023-04-10T00:31:35.304Z,3.90
2023-04-10T00:34:03.885Z,3.88
2023-04-10T00:36:32.373Z,3.85
2023-04-10T00:39:01.043Z,3.84
2023-04-10T00:41:30.005Z,3.81
2023-04-10T00:44:02.409Z,3.78
2023-04-10T00:46:32.067Z,3.73
2023-04-10T00:49:00.692Z,3.69
2023-04-10T00:51:28.843Z,3.64
2023-04-10T00:53:57.401Z,3.59
2023-04-10T00:56:26.955Z,3.55
2023-04-10T00:58:55.195Z,3.50
2023-04-10T01:01:23.308Z,3.47
2023-04-10T01:03:54.317Z,3.42
2023-04-10T01:06:58.168Z,3.37
2023-04-10T01:09:42.466Z,3.29
2023-04-10T01:12:35.707Z,3.24
2023-04-10T01:15:09.562Z,3.20
2023-04-10T01:17:50.968Z,3.17
2023-04-10T01:20:34.844Z,3.13
2023-04-10T01:23:19.401Z,3.09
2023-04-10T01:26:03.816Z,3.05
2023-04-10T01:28:57.525Z,3.00
2023-04-10T01:31:58.346Z,2.97
2023-04-10T01:34:41.733Z,2.92
2023-04-10T01:37:20.892Z,2.89
2023-04-10T01:40:11.695Z,2.84
2023-04-10T01:42:49.075Z,2.81
2023-04-10T01:45:22.080Z,2.79
2023-04-10T01:47:53.349Z,2.77
2023-04-10T01:50:24.599Z,2.72
2023-04-10T01:53:01.527Z,2.68
2023-04-10T01:55:43.870Z,2.65
2023-04-10T01:58:13.868Z,2.60
2023-04-10T02:00:45.328Z,2.58
2023-04-10T02:03:16.462Z,2.55
2023-04-10T02:06:13.862Z,2.52
2023-04-10T02:09:11.209Z,2.46
2023-04-10T02:12:07.748Z,2.42
2023-04-10T02:14:43.072Z,2.39
2023-04-10T02:17:18.794Z,2.34
2023-04-10T02:19:55.275Z,2.30
2023-04-10T02:22:25.811Z,2.29
2023-04-10T02:24:54.725Z,2.26
2023-04-10T02:27:33.047Z,2.24
2023-04-10T02:30:03.641Z,2.21
2023-04-10T02:32:35.857Z,2.17
2023-04-10T02:35:04.618Z,2.14
2023-04-10T02:37:33.451Z,2.12
2023-04-10T02:40:02.388Z,2.11
2023-04-10T02:42:36.657Z,2.09
2023-04-10T02:45:07.377Z,2.08
2023-04-10T02:47:41.025Z,2.05
2023-04-10T02:50:09.727Z,2.02
2023-04-10T02:52:41.936Z,2.00
2023-04-10T02:55:10.971Z,1.97
2023-04-10T02:57:43.012Z,1.96
2023-04-10T03:00:13.945Z,1.94
2023-04-10T03:03:08.748Z,1.91
2023-04-10T03:05:43.684Z,1.89
2023-04-10T03:08:13.962Z,1.86
2023-04-10T03:10:48.956Z,1.83
2023-04-10T03:13:17.381Z,1.81
2023-04-10T03:15:45.983Z,1.79
2023-04-10T03:18:15.713Z,1.77
2023-04-10T03:20:46.465Z,1.75
2023-04-10T03:23:14.561Z,1.74
2023-04-10T03:25:43.657Z,1.72
2023-04-10T03:28:12.500Z,1.71
2023-04-10T03:30:42.003Z,1.70
2023-04-10T03:33:12.635Z,1.67
2023-04-10T03:35:41.205Z,1.67
2023-04-10T03:38:11.283Z,1.65
2023-04-10T03:40:39.546Z,1.64
2023-04-10T03:43:11.965Z,1.62
2023-04-10T03:45:43.528Z,1.60
2023-04-10T03:48:12.548Z,1.58
2023-04-10T03:50:44.369Z,1.56
2023-04-10T03:53:13.105Z,1.56
2023-04-10T03:55:41.487Z,1.54
2023-04-10T03:58:10.947Z,1.53
2023-04-10T04:00:39.395Z,1.51
2023-04-10T04:03:20.805Z,1.52
2023-04-10T04:06:15.440Z,1.51
2023-04-10T04:08:55.875Z,1.51
2023-04-10T04:11:46.622Z,1.51
2023-04-10T04:14:43.768Z,1.51
2023-04-10T04:17:32.830Z,1.52
2023-04-10T04:20:11.060Z,1.55
2023-04-10T04:23:00.953Z,1.58
2023-04-10T04:25:54.489Z,1.62
2023-04-10T04:28:25.362Z,1.64
2023-04-10T04:31:18.353Z,1.68
2023-04-10T04:34:05.867Z,1.73
2023-04-10T04:36:47.231Z,1.78
2023-04-10T04:39:36.738Z,1.82
2023-04-10T04:42:40.952Z,1.86
2023-04-10T04:45:46.002Z,1.92
2023-04-10T04:48:53.240Z,1.95
2023-04-10T04:51:43.778Z,1.99
2023-04-10T04:54:30.792Z,2.06
2023-04-10T04:57:28.879Z,2.12
2023-04-10T05:00:17.616Z,2.17
2023-04-10T05:03:15.842Z,2.25
2023-04-10T05:06:07.483Z,2.32
2023-04-10T05:08:54.373Z,2.37
2023-04-10T05:11:46.499Z,2.46
2023-04-10T05:14:40.963Z,2.53
2023-04-10T05:17:42.279Z,2.62
2023-04-10T05:20:31.501Z,2.70
2023-04-10T05:23:20.501Z,2.77
2023-04-10T05:26:16.172Z,2.86
2023-04-10T05:29:03.341Z,2.94
2023-04-10T05:31:53.319Z,3.03
2023-04-10T05:34:40.572Z,3.13
2023-04-10T05:37:13.166Z,3.24
2023-04-10T05:39:51.531Z,3.35
2023-04-10T05:42:36.523Z,3.46
2023-04-10T05:45:19.686Z,3.58
2023-04-10T05:48:02.636Z,3.70
2023-04-10T05:50:38.753Z,3.82
2023-04-10T05:53:34.127Z,3.94
2023-04-10T05:56:27.183Z,4.06
2023-04-10T05:59:14.102Z,4.18
2023-04-10T06:02:06.785Z,4.30
2023-04-10T06:04:35.500Z,4.40
2023-04-10T06:07:04.635Z,4.51
2023-04-10T06:09:52.732Z,4.63
2023-04-10T06:12:21.040Z,4.74
2023-04-10T06:14:49.897Z,4.85
2023-04-10T06:17:21.977Z,4.96
2023-04-10T06:19:59.589Z,5.10
2023-04-10T06:22:29.047Z,5.23
2023-04-10T06:24:57.428Z,5.37
2023-04-10T06:27:29.091Z,5.49
2023-04-10T06:29:57.713Z,5.63
2023-04-10T06:32:26.182Z,5.75
2023-04-10T06:34:54.483Z,5.88
2023-04-10T06:37:31.396Z,6.03
2023-04-10T06:40:08.043Z,6.17
2023-04-10T06:42:38.819Z,6.31
2023-04-10T06:45:21.290Z,6.45
2023-04-10T06:47:49.716Z,6.60
2023-04-10T06:50:19.652Z,6.75
2023-04-10T06:52:48.493Z,6.89
2023-04-10T06:55:17.204Z,7.02
2023-04-10T06:57:45.745Z,7.16
2023-04-10T07:00:14.410Z,7.32
2023-04-10T07:02:43.389Z,7.48
2023-04-10T07:05:11.818Z,7.66
2023-04-10T07:07:43.200Z,7.80
2023-04-10T07:10:13.521Z,7.95
2023-04-10T07:12:43.844Z,8.09
2023-04-10T07:15:13.133Z,8.22
2023-04-10T07:17:41.427Z,8.36
2023-04-10T07:20:11.272Z,8.48
2023-04-10T07:22:39.856Z,8.60
2023-04-10T07:25:08.638Z,8.72
2023-04-10T07:27:36.880Z,8.83
2023-04-10T07:30:05.515Z,8.94
2023-04-10T07:32:35.067Z,9.02
2023-04-10T07:35:03.560Z,9.15
2023-04-10T07:37:31.764Z,9.29
2023-04-10T07:40:03.384Z,9.42
2023-04-10T07:42:31.926Z,9.58
2023-04-10T07:45:00.274Z,9.70
2023-04-10T07:47:29.186Z,9.81
2023-04-10T07:49:57.781Z,9.94
2023-04-10T07:52:26.874Z,10.03
2023-04-10T07:54:56.269Z,10.09
2023-04-10T07:57:26.855Z,10.24
2023-04-10T07:59:59.300Z,10.41
2023-04-10T08:02:27.990Z,10.53
2023-04-10T08:04:56.617Z,10.69
2023-04-10T08:07:25.063Z,10.82
2023-04-10T08:09:54.493Z,10.95
2023-04-10T08:12:23.993Z,10.98
2023-04-10T08:14:51.990Z,11.03
2023-04-10T08:17:21.048Z,11.19
2023-04-10T08:19:50.181Z,11.37
2023-04-10T08:22:18.871Z,11.45
2023-04-10T08:24:47.238Z,11.50
2023-04-10T08:27:16.566Z,11.59
2023-04-10T08:29:44.999Z,11.62
2023-04-10T08:32:14.694Z,11.67
2023-04-10T08:34:47.130Z,11.60
2023-04-10T08:37:15.910Z,11.66
2023-04-10T08:39:44.927Z,11.61
2023-04-10T08:42:13.885Z,11.76
2023-04-10T08:44:42.070Z,11.83
2023-04-10T08:47:10.754Z,11.93
2023-04-10T08:49:57.457Z,12.15
2023-04-10T08:52:26.538Z,12.40
2023-04-10T08:54:57.516Z,12.43
2023-04-10T08:57:27.554Z,12.32
2023-04-10T08:59:56.450Z,12.59
2023-04-10T09:02:26.184Z,12.58
2023-04-10T09:04:55.989Z,12.44
2023-04-10T09:07:26.691Z,12.44
2023-04-10T09:09:58.924Z,12.50
2023-04-10T09:12:29.481Z,12.52
2023-04-10T09:14:57.842Z,12.56
2023-04-10T09:17:26.133Z,12.58
2023-04-10T09:20:00.761Z,12.66
2023-04-10T09:22:33.980Z,12.67
2023-04-10T09:25:04.592Z,12.69
2023-04-10T09:27:35.669Z,12.86
2023-04-10T09:30:05.818Z,12.87
2023-04-10T09:32:43.146Z,13.07
2023-04-10T09:35:16.672Z,12.88
2023-04-10T09:37:47.140Z,12.88
2023-04-10T09:40:24.435Z,12.90
2023-04-10T09:42:56.061Z,13.17
2023-04-10T09:45:27.347Z,13.23
2023-04-10T09:48:08.965Z,13.43
2023-04-10T09:50:40.416Z,13.81
2023-04-10T09:53:10.887Z,14.05
2023-04-10T09:55:39.926Z,13.90
2023-04-10T09:58:08.607Z,13.66
2023-04-10T10:00:41.630Z,13.49
2023-04-10T10:03:12.411Z,13.21
2023-04-10T10:05:46.856Z,13.34
2023-04-10T10:08:16.853Z,13.33
2023-04-10T10:10:51.916Z,13.55
2023-04-10T10:13:32.077Z,13.68
2023-04-10T10:16:18.070Z,13.80
2023-04-10T10:19:11.385Z,14.25
2023-04-10T10:21:43.623Z,14.28
2023-04-10T10:24:12.743Z,14.81
2023-04-10T10:26:42.098Z,15.20
2023-04-10T10:29:14.226Z,15.22
2023-04-10T10:31:43.284Z,15.33
2023-04-10T10:34:11.576Z,15.03
2023-04-10T10:36:42.803Z,15.47
2023-04-10T10:39:33.351Z,15.84
2023-04-10T10:42:28.012Z,15.70
2023-04-10T10:45:11.309Z,15.77
2023-04-10T10:47:47.356Z,16.20
2023-04-10T10:50:23.435Z,16.89
2023-04-10T10:52:57.455Z,17.10
2023-04-10T10:55:38.935Z,17.10
2023-04-10T10:58:08.383Z,17.81
2023-04-10T11:00:55.545Z,18.11
2023-04-10T11:03:30.486Z,17.99
2023-04-10T11:06:16.986Z,18.00
2023-04-10T11:08:47.385Z,17.59
2023-04-10T11:11:29.844Z,17.88
2023-04-10T11:14:01.491Z,18.03
2023-04-10T11:16:41.513Z,18.37
2023-04-10T11:19:16.401Z,18.29
2023-04-10T11:22:09.097Z,18.98
2023-04-10T11:25:00.961Z,18.82
2023-04-10T11:27:49.538Z,18.84
2023-04-10T11:30:37.222Z,18.77
2023-04-10T11:33:05.762Z,18.24
2023-04-10T11:35:34.553Z,17.36
2023-04-10T11:38:18.315Z,16.71
2023-04-10T11:41:07.040Z,16.28
2023-04-10T11:43:35.959Z,16.67
2023-04-10T11:46:08.464Z,15.91
2023-04-10T11:48:37.786Z,15.67
2023-04-10T11:51:11.018Z,16.38
2023-04-10T11:53:45.350Z,16.05
2023-04-10T11:56:22.160Z,16.09
2023-04-10T11:58:54.033Z,16.31
2023-04-10T12:01:23.483Z,16.50
2023-04-10T12:03:52.119Z,17.10
2023-04-10T12:06:22.974Z,17.76
2023-04-10T12:08:52.022Z,17.80
2023-04-10T12:11:25.744Z,18.31
2023-04-10T12:13:55.483Z,18.79
2023-04-10T12:16:25.475Z,19.06
2023-04-10T12:18:54.189Z,19.83
2023-04-10T12:21:22.745Z,19.91
2023-04-10T12:23:53.208Z,20.42
2023-04-10T12:26:22.127Z,20.72
2023-04-10T12:28:57.513Z,20.94
2023-04-10T12:31:34.676Z,20.39
2023-04-10T12:34:05.485Z,19.44
2023-04-10T12:36:35.301Z,18.97
2023-04-10T12:39:04.738Z,18.36
2023-04-10T12:41:34.411Z,19.30
2023-04-10T12:44:13.904Z,19.22
2023-04-10T12:46:43.469Z,19.69
2023-04-10T12:49:21.465Z,19.27
2023-04-10T12:51:51.563Z,19.36
2023-04-10T12:54:34.126Z,20.57
2023-04-10T12:57:04.290Z,20.43
2023-04-10T12:59:32.984Z,21.03
2023-04-10T13:02:03.899Z,20.57
2023-04-10T13:04:32.776Z,19.72
2023-04-10T13:07:02.160Z,20.06
2023-04-10T13:09:31.679Z,20.01
2023-04-10T13:11:59.758Z,20.32
2023-04-10T13:14:28.034Z,20.76
2023-04-10T13:16:56.172Z,21.45
2023-04-10T13:19:24.287Z,20.71
2023-04-10T13:21:52.650Z,21.41
2023-04-10T13:24:21.010Z,21.19
2023-04-10T13:26:49.246Z,20.92
2023-04-10T13:29:17.598Z,20.85
2023-04-10T13:31:45.792Z,20.41
2023-04-10T13:34:14.195Z,21.08
2023-04-10T13:36:42.754Z,21.58
2023-04-10T13:39:11.183Z,22.08
2023-04-10T13:41:39.453Z,22.22
2023-04-10T13:44:07.708Z,22.90
2023-04-10T13:46:35.774Z,23.34
2023-04-10T13:49:05.640Z,23.39
2023-04-10T13:51:33.912Z,23.19
2023-04-10T13:54:04.962Z,21.68
2023-04-10T13:56:33.382Z,21.53
2023-04-10T13:59:01.703Z,21.74
2023-04-10T14:01:29.984Z,21.54
2023-04-10T14:03:58.542Z,21.01
2023-04-10T14:06:27.402Z,21.27
2023-04-10T14:08:55.918Z,21.72
2023-04-10T14:11:24.219Z,21.85
2023-04-10T14:13:52.570Z,21.27
2023-04-10T14:16:21.044Z,20.13
2023-04-10T14:18:50.353Z,18.80
2023-04-10T14:21:20.571Z,18.43
2023-04-10T14:23:49.535Z,17.90
2023-04-10T14:26:18.664Z,17.46
2023-04-10T14:28:47.168Z,16.81
2023-04-10T14:31:16.719Z,16.53
2023-04-10T14:33:44.901Z,16.49
2023-04-10T14:36:13.126Z,16.46
2023-04-10T14:38:41.394Z,16.23
2023-04-10T14:41:09.929Z,15.61
2023-04-10T14:43:39.348Z,15.85
2023-04-10T14:46:07.744Z,15.71
2023-04-10T14:48:36.565Z,15.58
2023-04-10T14:51:10.278Z,15.72
2023-04-10T14:53:39.542Z,16.35
2023-04-10T14:56:15.092Z,16.39
2023-04-10T14:58:43.971Z,15.80
2023-04-10T15:01:13.363Z,15.57
2023-04-10T15:03:42.276Z,15.45
2023-04-10T15:06:10.628Z,15.43
2023-04-10T15:08:38.651Z,15.33
2023-04-10T15:11:07.996Z,15.21
2023-04-10T15:13:38.280Z,15.48
2023-04-10T15:16:08.165Z,16.11
2023-04-10T15:18:36.148Z,17.15
2023-04-10T15:21:04.865Z,18.41
2023-04-10T15:23:33.798Z,19.37
2023-04-10T15:26:03.441Z,19.95
2023-04-10T15:28:31.837Z,19.88
2023-04-10T15:31:00.679Z,20.00
2023-04-10T15:33:31.943Z,20.10
2023-04-10T15:36:00.704Z,20.09
2023-04-10T15:38:29.188Z,20.28
2023-04-10T15:40:57.980Z,20.24
2023-04-10T15:43:26.250Z,19.68
2023-04-10T15:45:59.041Z,19.88
2023-04-10T15:48:28.989Z,19.78
2023-04-10T15:50:57.125Z,19.56
2023-04-10T15:53:25.554Z,20.25
2023-04-10T15:55:54.798Z,20.19
2023-04-10T15:58:23.142Z,20.09
2023-04-10T16:00:51.352Z,19.59
2023-04-10T16:03:19.448Z,18.51
2023-04-10T16:05:47.774Z,17.41
2023-04-10T16:08:16.692Z,17.49
2023-04-10T16:10:44.780Z,17.47
2023-04-10T16:13:13.122Z,17.31
2023-04-10T16:15:41.395Z,17.27
2023-04-10T16:18:09.685Z,16.72
2023-04-10T16:20:38.301Z,16.20
2023-04-10T16:23:06.454Z,15.90
2023-04-10T16:25:34.726Z,15.12
2023-04-10T16:28:02.914Z,14.66
2023-04-10T16:30:32.124Z,14.44
2023-04-10T16:33:01.259Z,14.12
2023-04-10T16:35:29.490Z,13.70
2023-04-10T16:37:57.528Z,13.74
2023-04-10T16:40:32.475Z,13.60
2023-04-10T16:43:02.000Z,13.41
2023-04-10T16:45:30.581Z,13.28
2023-04-10T16:47:58.643Z,13.12
2023-04-10T16:50:26.699Z,12.97
2023-04-10T16:52:54.672Z,12.85
2023-04-10T16:55:22.970Z,12.69
2023-04-10T16:57:51.813Z,12.48
2023-04-10T17:00:22.207Z,12.21
2023-04-10T17:02:52.866Z,12.03
2023-04-10T17:05:21.264Z,11.89
2023-04-10T17:07:49.704Z,11.74
2023-04-10T17:10:20.351Z,11.57
2023-04-10T17:12:48.451Z,11.38
2023-04-10T17:15:17.981Z,11.25
2023-04-10T17:17:47.498Z,11.15
2023-04-10T17:20:15.737Z,11.04
2023-04-10T17:22:47.418Z,10.89
2023-04-10T17:25:15.722Z,10.78
2023-04-10T17:27:45.768Z,10.69
2023-04-10T17:30:14.228Z,10.61
2023-04-10T17:32:43.413Z,10.50
2023-04-10T17:35:11.732Z,10.44
2023-04-10T17:37:39.810Z,10.36
2023-04-10T17:40:09.020Z,10.28
2023-04-10T17:42:37.055Z,10.18
2023-04-10T17:45:05.762Z,10.10
2023-04-10T17:47:35.050Z,9.98
2023-04-10T17:50:04.382Z,9.89
2023-04-10T17:52:32.746Z,9.80
2023-04-10T17:55:02.230Z,9.71
2023-04-10T17:57:30.734Z,9.66
2023-04-10T17:59:58.718Z,9.60
2023-04-10T18:02:26.797Z,9.56
2023-04-10T18:04:56.466Z,9.53
2023-04-10T18:07:25.218Z,9.49
2023-04-10T18:09:55.698Z,9.47
2023-04-10T18:12:23.795Z,9.46
2023-04-10T18:14:51.920Z,9.43
2023-04-10T18:17:20.655Z,9.40
2023-04-10T18:19:51.575Z,9.40
2023-04-10T18:22:19.611Z,9.39
2023-04-10T18:24:51.626Z,9.38
2023-04-10T18:27:22.126Z,9.37
2023-04-10T18:29:52.555Z,9.38
2023-04-10T18:32:20.623Z,9.36
2023-04-10T18:34:49.859Z,9.38
2023-04-10T18:37:17.918Z,9.39
2023-04-10T18:39:46.007Z,9.40
2023-04-10T18:42:14.157Z,9.41
2023-04-10T18:44:42.266Z,9.41
2023-04-10T18:47:11.803Z,9.41
2023-04-10T18:49:40.757Z,9.41
2023-04-10T18:52:08.712Z,9.42
2023-04-10T18:54:36.872Z,9.42
2023-04-10T18:57:05.471Z,9.40
2023-04-10T18:59:33.552Z,9.36
2023-04-10T19:02:02.052Z,9.36
2023-04-10T19:04:30.848Z,9.32
2023-04-10T19:06:58.962Z,9.28
2023-04-10T19:09:27.169Z,9.23
2023-04-10T19:11:56.395Z,9.23
2023-04-10T19:14:24.818Z,9.17
2023-04-10T19:16:53.305Z,9.11
2023-04-10T19:19:21.588Z,9.07
2023-04-10T19:21:49.666Z,9.04
2023-04-10T19:24:17.838Z,9.00
2023-04-10T19:26:46.016Z,8.98
2023-04-10T19:29:14.147Z,8.93
2023-04-10T19:31:42.261Z,8.89
2023-04-10T19:34:11.446Z,8.86
2023-04-10T19:36:39.840Z,8.81
2023-04-10T19:39:08.652Z,8.75
2023-04-10T19:41:41.804Z,8.72
2023-04-10T19:44:10.278Z,8.68
2023-04-10T19:46:38.655Z,8.65
2023-04-10T19:49:06.984Z,8.60
2023-04-10T19:51:35.082Z,8.55
2023-04-10T19:54:03.607Z,8.50
2023-04-10T19:56:32.034Z,8.44
2023-04-10T19:59:00.695Z,8.38
2023-04-10T20:01:29.524Z,8.31
2023-04-10T20:03:57.825Z,8.25
2023-04-10T20:06:27.258Z,8.19
2023-04-10T20:08:55.640Z,8.13
2023-04-10T20:11:30.441Z,8.09
2023-04-10T20:13:58.576Z,8.05
2023-04-10T20:16:27.049Z,8.04
2023-04-10T20:18:55.729Z,8.04
2023-04-10T20:21:23.962Z,8.05
2023-04-10T20:23:52.031Z,8.05
2023-04-10T20:26:21.550Z,8.06
2023-04-10T20:28:49.616Z,8.06
2023-04-10T20:31:17.737Z,8.05
2023-04-10T20:33:46.023Z,8.06
2023-04-10T20:36:14.139Z,8.05
2023-04-10T20:38:42.420Z,8.04
2023-04-10T20:41:10.521Z,8.03
2023-04-10T20:43:38.553Z,8.01
2023-04-10T20:46:08.084Z,7.97
2023-04-10T20:48:37.433Z,7.94
2023-04-10T20:51:06.142Z,7.91
2023-04-10T20:53:34.229Z,7.88
2023-04-10T20:56:04.923Z,7.85
2023-04-10T20:58:34.286Z,7.84
2023-04-10T21:01:02.562Z,7.81
2023-04-10T21:03:31.730Z,7.77
2023-04-10T21:06:02.621Z,7.78
2023-04-10T21:08:30.802Z,7.75
2023-04-10T21:11:01.674Z,7.72
2023-04-10T21:13:29.791Z,7.71
2023-04-10T21:15:57.862Z,7.69
2023-04-10T21:18:26.325Z,7.66
2023-04-10T21:20:54.536Z,7.66
2023-04-10T21:23:22.620Z,7.65
2023-04-10T21:25:54.986Z,7.65
2023-04-10T21:28:23.167Z,7.64
2023-04-10T21:30:51.168Z,7.61
2023-04-10T21:33:19.364Z,7.61
2023-04-10T21:35:48.018Z,7.57
2023-04-10T21:38:16.211Z,7.52
2023-04-10T21:40:54.534Z,7.46
2023-04-10T21:43:22.787Z,7.42
2023-04-10T21:45:50.991Z,7.39
2023-04-10T21:48:22.501Z,7.35
2023-04-10T21:50:51.361Z,7.32
2023-04-10T21:53:19.621Z,7.32
2023-04-10T21:55:47.649Z,7.29
2023-04-10T21:58:15.994Z,7.28
2023-04-10T22:00:47.157Z,7.26
2023-04-10T22:03:16.512Z,7.25
2023-04-10T22:05:44.755Z,7.22
2023-04-10T22:08:13.900Z,7.21
2023-04-10T22:10:44.937Z,7.19
2023-04-10T22:13:27.487Z,7.17
2023-04-10T22:16:00.062Z,7.15
2023-04-10T22:18:28.154Z,7.12
2023-04-10T22:20:56.156Z,7.06
2023-04-10T22:23:24.256Z,7.02
2023-04-10T22:25:52.376Z,6.99
2023-04-10T22:28:20.337Z,6.93
2023-04-10T22:30:48.359Z,6.87
2023-04-10T22:33:16.379Z,6.82
2023-04-10T22:35:45.325Z,6.76
2023-04-10T22:38:13.376Z,6.70
2023-04-10T22:40:41.368Z,6.62
2023-04-10T22:43:10.839Z,6.53
2023-04-10T22:45:42.408Z,6.45
2023-04-10T22:48:10.503Z,6.36
2023-04-10T22:50:38.697Z,6.30
2023-04-10T22:53:06.652Z,6.25
2023-04-10T22:55:36.977Z,6.20
2023-04-10T22:58:05.891Z,6.15
2023-04-10T23:00:34.437Z,6.14
2023-04-10T23:03:02.706Z,6.13
2023-04-10T23:05:33.006Z,6.12
2023-04-10T23:08:01.130Z,6.11
2023-04-10T23:10:29.174Z,6.10
2023-04-10T23:12:57.134Z,6.09
2023-04-10T23:15:25.212Z,6.10
2023-04-10T23:17:53.465Z,6.08
2023-04-10T23:20:21.743Z,6.06
2023-04-10T23:22:49.711Z,6.04
2023-04-10T23:25:17.822Z,6.02
2023-04-10T23:27:45.823Z,5.97
2023-04-10T23:30:14.006Z,5.91
2023-04-10T23:32:41.992Z,5.90
2023-04-10T23:35:10.000Z,5.85
2023-04-10T23:37:37.955Z,5.82
2023-04-10T23:40:06.572Z,5.79
2023-04-10T23:42:34.546Z,5.77
2023-04-10T23:45:02.637Z,5.73
2023-04-10T23:47:30.761Z,5.68
2023-04-10T23:49:58.821Z,5.66
2023-04-10T23:52:26.747Z,5.65
2023-04-10T23:55:00.254Z,5.63
2023-04-10T23:57:28.226Z,5.61
2023-04-10T23:59:56.211Z,5.61
